createdAt,value
2023-05-01T00:00:56.977Z,241.71
2023-05-01T00:01:56.867Z,246.42
2023-05-01T00:02:56.876Z,248.97
2023-05-01T00:03:56.919Z,248.84
2023-05-01T00:04:56.741Z,246.37
2023-05-01T00:05:56.570Z,242.12
2023-05-01T00:06:56.490Z,241.27
2023-05-01T00:07:56.410Z,237.11
2023-05-01T00:08:56.331Z,232.60
2023-05-01T00:09:56.502Z,230.63
2023-05-01T00:10:56.262Z,228.87
2023-05-01T00:11:56.308Z,229.21
2023-05-01T00:12:56.171Z,230.70
2023-05-01T00:13:56.135Z,233.94
2023-05-01T00:14:56.203Z,236.06
2023-05-01T00:15:56.423Z,239.51
2023-05-01T00:16:56.590Z,242.35
2023-05-01T00:17:56.709Z,244.42
2023-05-01T00:18:56.779Z,243.86
2023-05-01T00:19:57.234Z,244.75
2023-05-01T00:20:56.820Z,247.47
2023-05-01T00:21:56.764Z,245.83
2023-05-01T00:22:56.712Z,244.37
2023-05-01T00:23:56.739Z,248.08
2023-05-01T00:24:56.691Z,250.00
2023-05-01T00:25:56.944Z,250.00
2023-05-01T00:26:57.118Z,250.00
2023-05-01T00:27:57.249Z,248.71
2023-05-01T00:28:57.415Z,244.81
2023-05-01T00:29:57.888Z,243.39
2023-05-01T00:30:57.501Z,243.12
2023-05-01T00:31:57.531Z,242.47
2023-05-01T00:32:57.400Z,241.59
2023-05-01T00:33:57.418Z,241.82
2023-05-01T00:34:57.368Z,241.71
2023-05-01T00:35:57.629Z,242.77
2023-05-01T00:36:57.719Z,244.13
2023-05-01T00:37:57.872Z,244.72
2023-05-01T00:38:58.097Z,245.68
2023-05-01T00:39:58.586Z,246.61
2023-05-01T00:40:58.282Z,244.77
2023-05-01T00:41:58.132Z,243.63
2023-05-01T00:42:58.071Z,244.94
2023-05-01T00:43:57.993Z,246.50
2023-05-01T00:44:58.072Z,248.06
2023-05-01T00:45:58.353Z,248.49
2023-05-01T00:46:58.606Z,247.25
2023-05-01T00:47:58.912Z,247.92
2023-05-01T00:48:58.921Z,245.71
2023-05-01T00:49:59.186Z,246.38
2023-05-01T00:50:59.346Z,248.68
2023-05-01T00:51:59.555Z,249.97
2023-05-01T00:52:59.802Z,249.83
2023-05-01T00:53:59.959Z,249.72
2023-05-01T00:55:00.218Z,249.62
2023-05-01T00:56:00.360Z,249.83
2023-05-01T00:57:00.562Z,248.84
2023-05-01T00:58:00.754Z,248.56
2023-05-01T00:59:00.941Z,249.51
2023-05-01T01:00:01.148Z,249.95
2023-05-01T01:01:01.370Z,247.67
2023-05-01T01:02:01.453Z,245.78
2023-05-01T01:03:01.829Z,243.43
2023-05-01T01:04:01.835Z,243.87
2023-05-01T01:05:01.963Z,242.91
2023-05-01T01:06:02.251Z,241.06
2023-05-01T01:07:02.403Z,239.70
2023-05-01T01:08:02.576Z,237.56
2023-05-01T01:09:02.787Z,237.40
2023-05-01T01:10:03.021Z,237.54
2023-05-01T01:11:03.207Z,237.46
2023-05-01T01:12:03.398Z,236.89
2023-05-01T01:13:03.603Z,236.21
2023-05-01T01:14:03.899Z,238.60
2023-05-01T01:15:03.849Z,241.19
2023-05-01T01:16:04.121Z,243.28
2023-05-01T01:17:04.384Z,241.99
2023-05-01T01:18:04.413Z,240.31
2023-05-01T01:19:04.558Z,238.89
2023-05-01T01:20:04.776Z,239.51
2023-05-01T01:21:04.948Z,239.91
2023-05-01T01:22:05.120Z,241.01
2023-05-01T01:23:05.278Z,240.75
2023-05-01T01:24:05.437Z,240.91
2023-05-01T01:25:05.629Z,241.98
2023-05-01T01:26:05.836Z,243.67
2023-05-01T01:27:05.900Z,245.91
2023-05-01T01:28:06.129Z,246.97
2023-05-01T01:29:06.306Z,245.45
2023-05-01T01:30:06.505Z,244.37
2023-05-01T01:31:06.744Z,241.84
2023-05-01T01:32:06.766Z,241.75
2023-05-01T01:33:06.987Z,245.60
2023-05-01T01:34:07.148Z,249.16
2023-05-01T01:35:07.319Z,249.86
2023-05-01T01:36:07.660Z,248.61
2023-05-01T01:37:07.617Z,250.00
2023-05-01T01:38:07.845Z,249.68
2023-05-01T01:39:08.004Z,249.31
2023-05-01T01:40:08.160Z,246.71
2023-05-01T01:41:08.298Z,243.36
2023-05-01T01:42:08.478Z,240.53
2023-05-01T01:43:08.650Z,237.70
2023-05-01T01:44:08.897Z,236.41
2023-05-01T01:45:08.895Z,236.29
2023-05-01T01:46:09.169Z,235.90
2023-05-01T01:47:09.236Z,236.62
2023-05-01T01:48:09.436Z,240.80
2023-05-01T01:49:09.535Z,243.69
2023-05-01T01:50:09.700Z,239.08
2023-05-01T01:51:09.876Z,236.43
2023-05-01T01:52:09.922Z,234.75
2023-05-01T01:53:10.167Z,235.92
2023-05-01T01:54:10.368Z,239.79
2023-05-01T01:55:10.496Z,242.97
2023-05-01T01:56:10.576Z,244.95
2023-05-01T01:57:10.777Z,245.81
2023-05-01T01:58:10.936Z,246.44
2023-05-01T01:59:11.107Z,246.60
2023-05-01T02:00:11.420Z,246.62
2023-05-01T02:01:11.443Z,245.97
2023-05-01T02:02:11.683Z,243.88
2023-05-01T02:03:11.802Z,242.79
2023-05-01T02:04:12.015Z,242.65
2023-05-01T02:05:12.105Z,243.58
2023-05-01T02:06:12.340Z,244.85
2023-05-01T02:07:12.366Z,245.11
2023-05-01T02:08:12.473Z,244.29
2023-05-01T02:09:12.597Z,244.11
2023-05-01T02:10:12.814Z,243.23
2023-05-01T02:11:13.004Z,241.91
2023-05-01T02:12:13.104Z,240.13
2023-05-01T02:13:13.410Z,238.45
2023-05-01T02:14:13.437Z,239.14
2023-05-01T02:15:13.635Z,239.61
2023-05-01T02:16:13.846Z,239.17
2023-05-01T02:17:13.999Z,237.54
2023-05-01T02:18:14.067Z,236.93
2023-05-01T02:19:14.301Z,235.66
2023-05-01T02:20:14.502Z,234.71
2023-05-01T02:21:14.662Z,235.42
2023-05-01T02:22:14.855Z,233.65
2023-05-01T02:23:15.016Z,232.39
2023-05-01T02:24:15.167Z,232.83
2023-05-01T02:25:15.447Z,234.77
2023-05-01T02:26:15.456Z,237.94
2023-05-01T02:27:15.656Z,242.24
2023-05-01T02:28:15.936Z,245.00
2023-05-01T02:29:16.009Z,247.31
2023-05-01T02:30:16.214Z,247.02
2023-05-01T02:31:16.370Z,246.24
2023-05-01T02:32:16.521Z,243.73
2023-05-01T02:33:16.691Z,242.52
2023-05-01T02:34:16.838Z,239.78
2023-05-01T02:35:16.998Z,239.01
2023-05-01T02:36:17.180Z,237.53
2023-05-01T02:37:17.282Z,237.85
2023-05-01T02:38:17.439Z,239.65
2023-05-01T02:39:17.613Z,241.53
2023-05-01T02:40:17.799Z,242.12
2023-05-01T02:41:17.971Z,242.33
2023-05-01T02:42:18.145Z,242.48
2023-05-01T02:43:18.241Z,241.20
2023-05-01T02:44:18.446Z,241.74
2023-05-01T02:45:18.645Z,241.78
2023-05-01T02:46:18.586Z,240.79
2023-05-01T02:47:18.813Z,240.08
2023-05-01T02:48:18.843Z,239.91
2023-05-01T02:49:18.941Z,238.61
2023-05-01T02:50:19.350Z,238.58
2023-05-01T02:51:19.339Z,237.22
2023-05-01T02:52:19.452Z,236.13
2023-05-01T02:53:19.576Z,234.63
2023-05-01T02:54:19.759Z,234.25
2023-05-01T02:55:20.009Z,236.02
2023-05-01T02:56:20.128Z,238.90
2023-05-01T02:57:20.315Z,242.85
2023-05-01T02:58:20.520Z,243.01
2023-05-01T02:59:20.523Z,242.65
2023-05-01T03:00:20.793Z,240.97
2023-05-01T03:01:20.886Z,239.39
2023-05-01T03:02:21.072Z,238.42
2023-05-01T03:03:21.282Z,238.54
2023-05-01T03:04:21.404Z,240.65
2023-05-01T03:05:21.548Z,238.84
2023-05-01T03:06:21.688Z,239.30
2023-05-01T03:07:21.758Z,238.63
2023-05-01T03:08:21.997Z,240.39
2023-05-01T03:09:22.504Z,241.48
2023-05-01T03:10:21.953Z,241.45
2023-05-01T03:11:21.879Z,240.20
2023-05-01T03:12:21.778Z,239.49
2023-05-01T03:13:21.669Z,240.15
2023-05-01T03:14:21.767Z,240.06
2023-05-01T03:15:22.052Z,239.86
2023-05-01T03:16:22.139Z,240.54
2023-05-01T03:17:22.238Z,240.57
2023-05-01T03:18:22.507Z,240.51
2023-05-01T03:19:22.641Z,239.73
2023-05-01T03:20:22.779Z,239.78
2023-05-01T03:21:23.076Z,239.38
2023-05-01T03:22:23.244Z,239.02
2023-05-01T03:23:23.415Z,239.08
2023-05-01T03:24:23.678Z,239.56
2023-05-01T03:25:23.763Z,241.09
2023-05-01T03:26:23.954Z,242.07
2023-05-01T03:27:24.111Z,242.59
2023-05-01T03:28:24.407Z,241.87
2023-05-01T03:29:24.367Z,243.56
2023-05-01T03:30:24.539Z,244.38
2023-05-01T03:31:24.879Z,244.52
2023-05-01T03:32:24.958Z,242.36
2023-05-01T03:33:25.039Z,242.31
2023-05-01T03:34:25.190Z,242.14
2023-05-01T03:35:25.416Z,242.94
2023-05-01T03:36:25.570Z,244.31
2023-05-01T03:37:25.756Z,244.87
2023-05-01T03:38:25.997Z,245.51
2023-05-01T03:39:26.108Z,247.28
2023-05-01T03:40:26.249Z,249.14
2023-05-01T03:41:26.562Z,250.00
2023-05-01T03:42:26.637Z,249.90
2023-05-01T03:43:26.835Z,249.43
2023-05-01T03:44:26.976Z,249.93
2023-05-01T03:45:27.165Z,249.48
2023-05-01T03:46:27.475Z,250.00
2023-05-01T03:47:27.553Z,249.61
2023-05-01T03:48:27.857Z,249.51
2023-05-01T03:49:27.915Z,247.66
2023-05-01T03:50:28.035Z,245.72
2023-05-01T03:51:28.257Z,246.30
2023-05-01T03:52:28.371Z,246.92
2023-05-01T03:53:28.540Z,246.18
2023-05-01T03:54:28.712Z,246.44
2023-05-01T03:55:28.876Z,245.01
2023-05-01T03:56:29.124Z,244.70
2023-05-01T03:57:29.265Z,242.67
2023-05-01T03:58:29.488Z,242.27
2023-05-01T03:59:29.657Z,243.20
2023-05-01T04:00:29.803Z,243.79
2023-05-01T04:01:29.964Z,244.36
2023-05-01T04:02:30.248Z,244.82
2023-05-01T04:03:30.281Z,246.01
2023-05-01T04:04:30.585Z,247.93
2023-05-01T04:05:30.681Z,247.61
2023-05-01T04:06:30.891Z,246.97
2023-05-01T04:07:31.001Z,247.47
2023-05-01T04:08:31.154Z,248.50
2023-05-01T04:09:31.319Z,248.83
2023-05-01T04:10:31.498Z,248.28
2023-05-01T04:11:31.751Z,247.07
2023-05-01T04:12:31.847Z,246.95
2023-05-01T04:13:31.997Z,248.16
2023-05-01T04:14:32.168Z,246.67
2023-05-01T04:15:32.361Z,246.10
2023-05-01T04:16:32.717Z,245.64
2023-05-01T04:17:32.888Z,247.65
2023-05-01T04:18:32.972Z,249.33
2023-05-01T04:19:33.132Z,250.00
2023-05-01T04:20:33.351Z,249.92
2023-05-01T04:21:33.501Z,249.58
2023-05-01T04:22:33.743Z,248.83
2023-05-01T04:23:33.917Z,248.15
2023-05-01T04:24:34.111Z,247.92
2023-05-01T04:25:34.246Z,243.27
2023-05-01T04:26:34.497Z,239.53
2023-05-01T04:27:34.649Z,238.84
2023-05-01T04:28:34.898Z,236.98
2023-05-01T04:29:35.035Z,236.54
2023-05-01T04:30:35.181Z,237.00
2023-05-01T04:31:35.431Z,238.06
2023-05-01T04:32:35.697Z,238.53
2023-05-01T04:33:35.788Z,237.69
2023-05-01T04:34:35.944Z,235.96
2023-05-01T04:35:36.161Z,234.11
2023-05-01T04:36:36.298Z,229.25
2023-05-01T04:37:36.517Z,227.91
2023-05-01T04:38:36.806Z,226.92
2023-05-01T04:39:36.938Z,226.19
2023-05-01T04:40:37.083Z,227.38
2023-05-01T04:41:37.313Z,228.53
2023-05-01T04:42:37.528Z,226.08
2023-05-01T04:43:37.684Z,225.17
2023-05-01T04:44:37.915Z,225.80
2023-05-01T04:45:38.081Z,224.42
2023-05-01T04:46:38.357Z,222.82
2023-05-01T04:47:38.592Z,221.42
2023-05-01T04:48:38.729Z,217.61
2023-05-01T04:49:38.846Z,215.34
2023-05-01T04:50:39.084Z,214.82
2023-05-01T04:51:39.259Z,214.09
2023-05-01T04:52:39.438Z,211.27
2023-05-01T04:53:39.633Z,208.07
2023-05-01T04:54:39.823Z,208.87
2023-05-01T04:55:39.976Z,211.96
2023-05-01T04:56:40.151Z,213.20
2023-05-01T04:57:40.381Z,213.90
2023-05-01T04:58:40.532Z,215.21
2023-05-01T04:59:40.813Z,216.79
2023-05-01T05:00:40.956Z,218.25
2023-05-01T05:01:41.260Z,220.21
2023-05-01T05:02:41.365Z,222.01
2023-05-01T05:03:41.477Z,223.63
2023-05-01T05:04:41.565Z,223.10
2023-05-01T05:05:41.717Z,218.72
2023-05-01T05:06:41.978Z,214.04
2023-05-01T05:07:42.133Z,210.64
2023-05-01T05:08:42.302Z,208.82
2023-05-01T05:09:42.475Z,208.04
2023-05-01T05:10:42.640Z,206.64
2023-05-01T05:11:42.801Z,205.46
2023-05-01T05:12:42.913Z,204.50
2023-05-01T05:13:43.095Z,203.43
2023-05-01T05:14:43.306Z,203.88
2023-05-01T05:15:43.460Z,203.99
2023-05-01T05:16:43.823Z,204.82
2023-05-01T05:17:43.886Z,203.48
2023-05-01T05:18:44.003Z,206.31
2023-05-01T05:19:44.156Z,208.61
2023-05-01T05:20:44.302Z,210.80
2023-05-01T05:21:44.442Z,212.56
2023-05-01T05:22:44.654Z,211.25
2023-05-01T05:23:44.823Z,211.28
2023-05-01T05:24:44.929Z,211.96
2023-05-01T05:25:45.089Z,211.89
2023-05-01T05:26:45.540Z,211.99
2023-05-01T05:27:45.503Z,210.33
2023-05-01T05:28:45.700Z,210.60
2023-05-01T05:29:45.796Z,212.98
2023-05-01T05:30:46.046Z,214.68
2023-05-01T05:31:46.201Z,213.37
2023-05-01T05:32:46.390Z,208.16
2023-05-01T05:33:46.624Z,206.09
2023-05-01T05:34:46.809Z,205.17
2023-05-01T05:35:46.983Z,204.37
2023-05-01T05:36:47.325Z,203.88
2023-05-01T05:37:47.457Z,204.27
2023-05-01T05:38:47.690Z,205.76
2023-05-01T05:39:47.805Z,207.38
2023-05-01T05:40:48.045Z,206.55
2023-05-01T05:41:48.158Z,205.07
2023-05-01T05:42:48.397Z,205.04
2023-05-01T05:43:48.557Z,203.87
2023-05-01T05:44:48.781Z,204.05
2023-05-01T05:45:49.024Z,205.50
2023-05-01T05:46:49.151Z,204.97
2023-05-01T05:47:49.370Z,205.21
2023-05-01T05:48:49.578Z,206.90
2023-05-01T05:49:49.739Z,208.10
2023-05-01T05:50:49.898Z,207.13
2023-05-01T05:51:50.107Z,206.40
2023-05-01T05:52:50.282Z,206.20
2023-05-01T05:53:50.462Z,205.83
2023-05-01T05:54:50.850Z,206.03
2023-05-01T05:55:50.921Z,205.97
2023-05-01T05:56:51.079Z,204.69
2023-05-01T05:57:51.293Z,202.18
2023-05-01T05:58:51.514Z,199.58
2023-05-01T05:59:51.690Z,196.20
2023-05-01T06:00:51.860Z,194.60
2023-05-01T06:01:52.065Z,194.55
2023-05-01T06:02:52.249Z,192.02
2023-05-01T06:03:52.459Z,192.14
2023-05-01T06:04:52.622Z,192.27
2023-05-01T06:05:52.843Z,193.68
2023-05-01T06:06:53.050Z,192.86
2023-05-01T06:07:53.167Z,190.46
2023-05-01T06:08:53.349Z,190.04
2023-05-01T06:09:53.736Z,191.45
2023-05-01T06:10:53.709Z,191.97
2023-05-01T06:11:53.910Z,193.70
2023-05-01T06:12:58.581Z,195.32
2023-05-01T06:13:54.900Z,195.45
2023-05-01T06:14:53.806Z,196.34
2023-05-01T06:15:53.719Z,200.01
2023-05-01T06:16:53.716Z,204.59
2023-05-01T06:17:53.694Z,211.36
2023-05-01T06:18:53.523Z,212.99
2023-05-01T06:19:53.633Z,212.83
2023-05-01T06:20:53.324Z,212.66
2023-05-01T06:21:53.227Z,215.55
2023-05-01T06:22:53.133Z,215.97
2023-05-01T06:23:53.055Z,217.57
2023-05-01T06:24:53.061Z,219.60
2023-05-01T06:25:53.036Z,220.87
2023-05-01T06:26:52.970Z,221.05
2023-05-01T06:27:52.934Z,220.33
2023-05-01T06:28:52.990Z,219.92
2023-05-01T06:29:53.319Z,221.10
2023-05-01T06:30:53.432Z,220.22
2023-05-01T06:31:53.568Z,219.22
2023-05-01T06:32:53.738Z,219.85
2023-05-01T06:33:53.796Z,219.74
2023-05-01T06:34:53.956Z,219.59
2023-05-01T06:35:54.178Z,218.41
2023-05-01T06:36:54.371Z,218.16
2023-05-01T06:37:54.535Z,213.75
2023-05-01T06:38:54.722Z,201.71
2023-05-01T06:39:55.302Z,194.86
2023-05-01T06:40:54.865Z,194.98
2023-05-01T06:41:54.849Z,197.16
2023-05-01T06:42:54.803Z,197.80
2023-05-01T06:43:54.760Z,200.02
2023-05-01T06:44:54.728Z,201.96
2023-05-01T06:45:54.687Z,203.60
2023-05-01T06:46:54.711Z,204.33
2023-05-01T06:47:54.691Z,206.24
2023-05-01T06:48:54.594Z,206.43
2023-05-01T06:49:54.752Z,208.08
2023-05-01T06:50:54.696Z,211.82
2023-05-01T06:51:54.963Z,216.22
2023-05-01T06:52:55.115Z,217.43
2023-05-01T06:53:55.231Z,215.61
2023-05-01T06:54:55.516Z,214.98
2023-05-01T06:55:55.708Z,214.35
2023-05-01T06:56:55.891Z,214.02
2023-05-01T06:57:56.052Z,213.44
2023-05-01T06:58:56.244Z,211.21
2023-05-01T06:59:56.691Z,209.80
2023-05-01T07:00:56.591Z,211.68
2023-05-01T07:01:56.895Z,213.97
2023-05-01T07:02:57.246Z,215.41
2023-05-01T07:03:57.131Z,215.11
2023-05-01T07:04:57.321Z,215.27
2023-05-01T07:05:57.486Z,216.40
2023-05-01T07:06:57.706Z,217.18
2023-05-01T07:08:01.599Z,214.44
2023-05-01T07:08:57.753Z,213.98
2023-05-01T07:09:57.969Z,212.10
2023-05-01T07:10:57.567Z,209.71
2023-05-01T07:11:57.571Z,208.24
2023-05-01T07:12:57.372Z,209.48
2023-05-01T07:13:57.281Z,212.89
2023-05-01T07:14:57.172Z,217.60
2023-05-01T07:15:57.111Z,218.80
2023-05-01T07:16:57.150Z,220.04
2023-05-01T07:17:57.269Z,222.65
2023-05-01T07:18:57.418Z,223.29
2023-05-01T07:19:57.742Z,225.02
2023-05-01T07:20:57.669Z,225.72
2023-05-01T07:21:57.861Z,222.72
2023-05-01T07:22:58.054Z,219.22
2023-05-01T07:23:58.191Z,217.43
2023-05-01T07:24:58.315Z,216.13
2023-05-01T07:25:58.480Z,217.51
2023-05-01T07:26:58.663Z,218.62
2023-05-01T07:27:58.773Z,218.27
2023-05-01T07:28:58.899Z,218.01
2023-05-01T07:29:59.224Z,218.68
2023-05-01T07:30:59.220Z,221.83
2023-05-01T07:31:59.591Z,223.10
2023-05-01T07:32:59.547Z,224.10
2023-05-01T07:33:59.597Z,223.10
2023-05-01T07:34:59.716Z,223.26
2023-05-01T07:35:59.881Z,224.16
2023-05-01T07:37:00.033Z,225.85
2023-05-01T07:38:00.164Z,229.90
2023-05-01T07:39:00.277Z,233.33
2023-05-01T07:40:00.413Z,235.16
2023-05-01T07:41:00.547Z,235.69
2023-05-01T07:42:00.693Z,236.04
2023-05-01T07:43:00.843Z,233.70
2023-05-01T07:44:00.986Z,233.34
2023-05-01T07:45:01.214Z,231.89
2023-05-01T07:46:01.296Z,230.69
2023-05-01T07:47:01.432Z,229.17
2023-05-01T07:48:01.682Z,225.02
2023-05-01T07:49:01.824Z,220.14
2023-05-01T07:50:01.982Z,217.68
2023-05-01T07:51:02.094Z,218.39
2023-05-01T07:52:02.355Z,220.05
2023-05-01T07:53:02.534Z,223.02
2023-05-01T07:54:02.684Z,225.38
2023-05-01T07:55:02.877Z,228.02
2023-05-01T07:56:02.969Z,230.97
2023-05-01T07:57:03.123Z,231.66
2023-05-01T07:58:03.269Z,230.27
2023-05-01T07:59:03.440Z,229.99
2023-05-01T08:00:03.608Z,229.46
2023-05-01T08:01:03.742Z,231.52
2023-05-01T08:02:03.953Z,231.35
2023-05-01T08:03:04.114Z,231.17
2023-05-01T08:04:04.314Z,231.50
2023-05-01T08:05:04.438Z,233.60
2023-05-01T08:06:04.581Z,233.94
2023-05-01T08:07:04.792Z,233.85
2023-05-01T08:08:04.900Z,232.59
2023-05-01T08:09:05.120Z,231.48
2023-05-01T08:10:05.490Z,232.60
2023-05-01T08:11:05.447Z,235.27
2023-05-01T08:12:05.587Z,236.70
2023-05-01T08:13:05.794Z,236.77
2023-05-01T08:14:05.953Z,236.61
2023-05-01T08:15:06.068Z,238.99
2023-05-01T08:16:06.259Z,240.37
2023-05-01T08:17:06.460Z,242.31
2023-05-01T08:18:06.605Z,239.74
2023-05-01T08:19:06.684Z,238.56
2023-05-01T08:20:06.821Z,237.76
2023-05-01T08:21:06.938Z,236.33
2023-05-01T08:22:07.058Z,237.00
2023-05-01T08:23:07.224Z,235.17
2023-05-01T08:24:07.432Z,231.31
2023-05-01T08:25:07.523Z,229.47
2023-05-01T08:26:07.739Z,228.52
2023-05-01T08:27:07.878Z,221.17
2023-05-01T08:28:08.075Z,212.48
2023-05-01T08:29:08.263Z,210.32
2023-05-01T08:30:08.362Z,211.76
2023-05-01T08:31:08.562Z,214.25
2023-05-01T08:32:09.386Z,214.37
2023-05-01T08:33:08.288Z,215.06
2023-05-01T08:34:08.131Z,215.84
2023-05-01T08:35:08.057Z,216.80
2023-05-01T08:36:07.949Z,215.26
2023-05-01T08:37:07.797Z,216.84
2023-05-01T08:38:07.676Z,218.44
2023-05-01T08:39:07.553Z,220.22
2023-05-01T08:40:07.430Z,220.83
2023-05-01T08:41:07.315Z,218.01
2023-05-01T08:42:07.183Z,218.46
2023-05-01T08:43:07.205Z,217.65
2023-05-01T08:44:07.075Z,211.75
2023-05-01T08:45:06.930Z,209.33
2023-05-01T08:46:06.842Z,209.20
2023-05-01T08:47:06.779Z,213.60
2023-05-01T08:48:06.672Z,219.45
2023-05-01T08:49:06.473Z,220.72
2023-05-01T08:50:06.349Z,219.71
2023-05-01T08:51:07.236Z,219.85
2023-05-01T08:52:06.106Z,220.29
2023-05-01T08:53:05.968Z,217.53
2023-05-01T08:54:05.855Z,215.12
2023-05-01T08:55:05.748Z,211.79
2023-05-01T08:56:05.596Z,208.47
2023-05-01T08:57:05.467Z,208.48
2023-05-01T08:58:05.338Z,208.14
2023-05-01T08:59:05.271Z,208.57
2023-05-01T09:00:05.081Z,210.01
2023-05-01T09:01:04.972Z,210.36
2023-05-01T09:02:04.923Z,208.38
2023-05-01T09:03:04.919Z,200.25
2023-05-01T09:04:04.797Z,196.89
2023-05-01T09:05:04.603Z,196.38
2023-05-01T09:06:04.626Z,194.52
2023-05-01T09:07:04.494Z,191.94
2023-05-01T09:08:04.415Z,190.06
2023-05-01T09:09:04.363Z,188.47
2023-05-01T09:10:04.318Z,183.64
2023-05-01T09:11:04.194Z,181.22
2023-05-01T09:12:04.145Z,182.73
2023-05-01T09:13:04.065Z,181.87
2023-05-01T09:14:04.040Z,178.78
2023-05-01T09:15:03.871Z,178.65
2023-05-01T09:16:03.819Z,174.72
2023-05-01T09:17:03.731Z,175.24
2023-05-01T09:18:04.111Z,173.44
2023-05-01T09:19:03.601Z,161.64
2023-05-01T09:20:03.514Z,150.69
2023-05-01T09:21:03.530Z,139.96
2023-05-01T09:22:03.407Z,140.29
2023-05-01T09:23:03.339Z,146.28
2023-05-01T09:24:03.263Z,147.03
2023-05-01T09:25:03.201Z,142.98
2023-05-01T09:26:03.119Z,132.73
2023-05-01T09:27:03.074Z,128.90
2023-05-01T09:28:03.007Z,132.17
2023-05-01T09:29:02.920Z,128.78
2023-05-01T09:30:02.817Z,123.98
2023-05-01T09:31:02.740Z,122.33
2023-05-01T09:32:02.722Z,115.11
2023-05-01T09:33:02.616Z,111.48
2023-05-01T09:34:02.651Z,101.31
2023-05-01T09:35:02.759Z,96.69
2023-05-01T09:36:02.890Z,97.10
2023-05-01T09:37:03.180Z,98.04
2023-05-01T09:38:03.198Z,99.51
2023-05-01T09:39:03.349Z,101.83
2023-05-01T09:40:03.549Z,98.97
2023-05-01T09:41:03.628Z,98.70
2023-05-01T09:42:04.597Z,102.26
2023-05-01T09:43:03.708Z,97.56
2023-05-01T09:44:03.654Z,73.35
2023-05-01T09:45:03.562Z,54.93
2023-05-01T09:46:03.598Z,61.75
2023-05-01T09:47:03.458Z,69.65
2023-05-01T09:48:03.470Z,74.10
2023-05-01T09:49:03.290Z,69.34
2023-05-01T09:50:03.245Z,73.33
2023-05-01T09:51:03.116Z,80.88
2023-05-01T09:52:03.006Z,83.90
2023-05-01T09:53:02.902Z,87.05
2023-05-01T09:54:02.852Z,88.78
2023-05-01T09:55:02.712Z,84.49
2023-05-01T09:56:02.601Z,83.90
2023-05-01T09:57:02.505Z,87.63
2023-05-01T09:58:02.404Z,91.13
2023-05-01T09:59:02.270Z,86.54
2023-05-01T10:00:02.348Z,87.41
2023-05-01T10:01:02.550Z,86.38
2023-05-01T10:02:02.694Z,80.80
2023-05-01T10:03:02.941Z,74.52
2023-05-01T10:04:02.989Z,72.45
2023-05-01T10:05:03.218Z,80.67
2023-05-01T10:06:03.326Z,85.50
2023-05-01T10:07:03.502Z,84.77
2023-05-01T10:08:03.714Z,85.19
2023-05-01T10:09:03.714Z,82.35
2023-05-01T10:10:04.100Z,70.41
2023-05-01T10:11:03.713Z,51.26
2023-05-01T10:12:03.551Z,39.18
2023-05-01T10:13:03.401Z,28.31
2023-05-01T10:14:03.287Z,23.00
2023-05-01T10:15:10.780Z,29.20
2023-05-01T10:16:03.968Z,29.44
2023-05-01T10:17:02.827Z,31.43
2023-05-01T10:18:02.820Z,32.00
2023-05-01T10:19:04.316Z,39.71
2023-05-01T10:20:02.482Z,40.21
2023-05-01T10:21:02.449Z,45.40
2023-05-01T10:22:02.593Z,44.05
2023-05-01T10:23:02.741Z,39.98
2023-05-01T10:24:02.881Z,29.85
2023-05-01T10:25:02.947Z,23.75
2023-05-01T10:26:04.093Z,28.02
2023-05-01T10:27:03.040Z,32.30
2023-05-01T10:28:02.935Z,37.48
2023-05-01T10:29:02.982Z,36.78
2023-05-01T10:30:02.740Z,31.91
2023-05-01T10:31:02.666Z,36.61
2023-05-01T10:32:02.793Z,38.06
2023-05-01T10:33:02.509Z,41.00
2023-05-01T10:34:02.275Z,44.17
2023-05-01T10:35:02.127Z,48.69
2023-05-01T10:36:02.064Z,47.52
2023-05-01T10:37:01.839Z,46.81
2023-05-01T10:38:01.728Z,43.58
2023-05-01T10:39:01.580Z,33.75
2023-05-01T10:40:01.394Z,38.11
2023-05-01T10:41:01.341Z,34.05
2023-05-01T10:42:01.116Z,37.04
2023-05-01T10:43:00.963Z,42.91
2023-05-01T10:44:00.866Z,40.01
2023-05-01T10:45:01.082Z,31.31
2023-05-01T10:46:00.975Z,28.97
2023-05-01T10:47:01.146Z,29.87
2023-05-01T10:48:01.304Z,32.41
2023-05-01T10:49:01.339Z,31.91
2023-05-01T10:50:01.424Z,27.66
2023-05-01T10:51:01.557Z,31.05
2023-05-01T10:52:01.688Z,32.53
2023-05-01T10:53:01.843Z,27.61
2023-05-01T10:54:01.978Z,27.17
2023-05-01T10:55:02.406Z,30.69
2023-05-01T10:56:02.241Z,36.05
2023-05-01T10:57:02.371Z,30.97
2023-05-01T10:58:02.503Z,28.10
2023-05-01T10:59:02.591Z,21.53
2023-05-01T11:00:02.722Z,18.34
2023-05-01T11:01:02.907Z,23.46
2023-05-01T11:02:02.976Z,24.66
2023-05-01T11:03:03.200Z,27.00
2023-05-01T11:04:03.313Z,25.43
2023-05-01T11:05:03.515Z,25.00
2023-05-01T11:06:03.807Z,26.37
2023-05-01T11:07:03.788Z,25.01
2023-05-01T11:08:03.798Z,29.59
2023-05-01T11:09:03.973Z,36.01
2023-05-01T11:10:04.079Z,44.87
2023-05-01T11:11:04.314Z,51.80
2023-05-01T11:12:04.417Z,54.35
2023-05-01T11:13:04.533Z,62.98
2023-05-01T11:14:04.780Z,61.30
2023-05-01T11:15:04.912Z,65.85
2023-05-01T11:16:05.104Z,70.04
2023-05-01T11:17:05.218Z,62.81
2023-05-01T11:18:05.399Z,58.78
2023-05-01T11:19:05.515Z,61.89
2023-05-01T11:20:05.697Z,63.27
2023-05-01T11:21:05.810Z,62.56
2023-05-01T11:22:05.978Z,64.05
2023-05-01T11:23:06.090Z,66.48
2023-05-01T11:24:06.218Z,64.26
2023-05-01T11:25:06.356Z,58.76
2023-05-01T11:26:06.531Z,55.19
2023-05-01T11:27:06.659Z,57.40
2023-05-01T11:28:07.018Z,53.99
2023-05-01T11:29:06.923Z,53.47
2023-05-01T11:30:07.143Z,61.93
2023-05-01T11:31:07.304Z,64.58
2023-05-01T11:32:07.481Z,60.52
2023-05-01T11:33:10.217Z,50.36
2023-05-01T11:34:07.531Z,42.78
2023-05-01T11:35:07.308Z,39.69
2023-05-01T11:36:07.188Z,40.52
2023-05-01T11:37:07.076Z,46.77
2023-05-01T11:38:07.056Z,50.64
2023-05-01T11:39:06.771Z,51.40
2023-05-01T11:40:06.661Z,55.21
2023-05-01T11:41:06.553Z,52.56
2023-05-01T11:42:06.535Z,61.54
2023-05-01T11:43:06.294Z,63.78
2023-05-01T11:44:06.174Z,67.01
2023-05-01T11:45:06.142Z,70.00
2023-05-01T11:46:06.311Z,74.52
2023-05-01T11:47:06.476Z,76.89
2023-05-01T11:48:06.564Z,78.43
2023-05-01T11:49:06.731Z,77.86
2023-05-01T11:50:06.835Z,78.12
2023-05-01T11:51:06.970Z,79.70
2023-05-01T11:52:07.118Z,86.02
2023-05-01T11:53:07.256Z,84.69
2023-05-01T11:54:07.437Z,80.92
2023-05-01T11:55:07.535Z,80.30
2023-05-01T11:56:19.467Z,69.30
2023-05-01T11:57:08.567Z,68.40
2023-05-01T11:58:07.373Z,69.45
2023-05-01T11:59:07.211Z,69.66
2023-05-01T12:00:07.053Z,72.95
2023-05-01T12:01:07.012Z,79.57
2023-05-01T12:02:06.822Z,85.21
2023-05-01T12:03:06.931Z,86.12
2023-05-01T12:04:06.641Z,87.54
2023-05-01T12:05:06.386Z,86.88
2023-05-01T12:06:06.218Z,89.48
2023-05-01T12:07:06.071Z,89.91
2023-05-01T12:08:05.927Z,88.89
2023-05-01T12:09:05.837Z,92.89
2023-05-01T12:10:05.652Z,97.61
2023-05-01T12:11:05.494Z,100.58
2023-05-01T12:12:05.341Z,102.34
2023-05-01T12:13:05.277Z,103.79
2023-05-01T12:14:05.114Z,106.69
2023-05-01T12:15:05.091Z,107.67
2023-05-01T12:16:04.892Z,111.45
2023-05-01T12:17:04.932Z,115.20
2023-05-01T12:18:04.752Z,114.06
2023-05-01T12:19:04.595Z,115.59
2023-05-01T12:20:04.531Z,119.02
2023-05-01T12:21:04.635Z,118.33
2023-05-01T12:22:04.710Z,128.16
2023-05-01T12:23:04.899Z,134.48
2023-05-01T12:24:05.046Z,142.33
2023-05-01T12:25:05.435Z,151.39
2023-05-01T12:26:05.452Z,163.27
2023-05-01T12:27:05.550Z,166.52
2023-05-01T12:28:05.798Z,167.62
2023-05-01T12:29:05.948Z,166.77
2023-05-01T12:30:06.090Z,171.63
2023-05-01T12:31:06.249Z,176.98
2023-05-01T12:32:06.518Z,182.90
2023-05-01T12:33:06.611Z,188.95
2023-05-01T12:34:06.719Z,192.38
2023-05-01T12:35:06.952Z,193.99